createdAt,value
2024-04-18T00:43:23.702Z,99.90
2024-04-18T00:45:51.836Z,99.90
2024-04-18T00:48:31.041Z,99.90
2024-04-18T00:51:01.875Z,99.90
2024-04-18T00:53:33.029Z,99.90
2024-04-18T00:56:00.426Z,99.90
2024-04-18T00:58:28.395Z,99.90
2024-04-18T01:01:37.539Z,99.90
2024-04-18T01:04:05.362Z,99.90
2024-04-18T01:06:33.069Z,99.90
2024-04-18T01:09:03.040Z,99.90
2024-04-18T01:11:31.440Z,99.90
2024-04-18T01:22:15.650Z,99.90
2024-04-18T01:24:44.409Z,99.90
2024-04-18T01:27:11.907Z,99.90
2024-04-18T01:29:40.471Z,99.90
2024-04-18T01:32:08.148Z,99.90
2024-04-18T01:34:35.750Z,99.90
2024-04-18T01:37:18.506Z,99.90
2024-04-18T01:39:46.461Z,99.90
2024-04-18T01:42:14.086Z,99.90
2024-04-18T01:44:44.444Z,99.90
2024-04-18T01:47:12.086Z,99.90
2024-04-18T01:49:40.369Z,99.90
2024-04-18T01:52:35.359Z,99.90
2024-04-18T01:55:05.799Z,99.90
2024-04-18T01:57:36.529Z,99.90
2024-04-18T02:00:38.276Z,99.90
2024-04-18T02:03:05.935Z,99.90
2024-04-18T02:05:37.318Z,99.90
2024-04-18T02:15:40.450Z,99.90
2024-04-18T02:18:41.247Z,99.90
2024-04-18T02:21:38.720Z,99.90
2024-04-18T03:06:52.177Z,99.90
2024-04-18T03:09:19.570Z,99.90
2024-04-18T03:11:46.930Z,99.90
2024-04-18T03:14:15.333Z,99.90
2024-04-18T03:16:42.524Z,99.90
2024-04-18T03:19:13.655Z,99.90
2024-04-18T03:21:41.021Z,99.90
2024-04-18T03:24:22.875Z,99.90
2024-04-18T03:26:52.147Z,99.90
2024-04-18T03:29:23.720Z,99.90
2024-04-18T03:31:52.217Z,99.90
2024-04-18T03:38:07.093Z,99.90
2024-04-18T03:40:36.711Z,99.90
2024-04-18T03:43:04.072Z,99.90
2024-04-18T03:45:31.605Z,99.90
2024-04-18T03:47:59.295Z,99.90
2024-04-18T03:50:26.825Z,99.90
2024-04-18T03:53:54.502Z,99.90
2024-04-18T03:56:22.058Z,99.90
2024-04-18T03:58:50.407Z,99.90
2024-04-18T04:02:17.500Z,99.90
2024-04-18T04:08:39.376Z,99.90
2024-04-18T04:22:03.765Z,99.90
2024-04-18T04:24:30.944Z,99.90
2024-04-18T04:26:58.179Z,99.90
2024-04-18T04:44:33.339Z,99.90
2024-04-18T04:47:00.966Z,99.90
2024-04-18T04:49:41.288Z,99.90
2024-04-18T04:52:09.702Z,99.90
2024-04-18T04:54:39.055Z,99.90
2024-04-18T04:57:06.805Z,99.90
2024-04-18T04:59:42.975Z,99.90
2024-04-18T05:02:16.672Z,99.90
2024-04-18T05:04:55.015Z,99.90
2024-04-18T05:07:22.580Z,99.90
2024-04-18T05:09:51.213Z,99.90
2024-04-18T05:12:18.719Z,99.90
2024-04-18T05:14:46.329Z,99.90
2024-04-18T05:17:13.521Z,99.90
2024-04-18T05:19:40.737Z,99.90
2024-04-18T05:22:08.135Z,99.90
2024-04-18T05:24:35.766Z,99.90
2024-04-18T05:27:03.760Z,99.90
2024-04-18T05:29:49.417Z,99.90
2024-04-18T05:32:16.827Z,99.90
2024-04-18T05:34:44.347Z,99.90
2024-04-18T05:37:13.350Z,99.90
2024-04-18T05:39:41.784Z,99.90
2024-04-18T05:42:09.434Z,99.90
2024-04-18T05:44:40.929Z,99.90
2024-04-18T05:47:08.601Z,99.90
2024-04-18T05:49:37.187Z,99.90
2024-04-18T05:52:04.702Z,99.90
2024-04-18T05:54:32.842Z,99.90
2024-04-18T05:57:00.026Z,99.90
2024-04-18T05:59:27.197Z,99.90
2024-04-18T06:01:54.512Z,99.90
2024-04-18T06:04:21.869Z,99.90
2024-04-18T06:06:49.168Z,99.90
2024-04-18T06:09:16.362Z,99.90
2024-04-18T06:11:44.735Z,99.90
2024-04-18T06:14:12.121Z,99.90
2024-04-18T06:16:39.541Z,99.90
2024-04-18T06:19:06.737Z,99.90
2024-04-18T06:21:34.508Z,99.90
2024-04-18T06:24:02.624Z,99.90
2024-04-18T06:26:29.834Z,99.90
2024-04-18T06:28:56.992Z,99.90
2024-04-18T06:31:24.297Z,99.90
2024-04-18T06:33:51.574Z,99.90
2024-04-18T06:36:20.668Z,99.90
2024-04-18T06:38:47.837Z,99.90
2024-04-18T06:41:15.006Z,99.90
2024-04-18T06:43:42.559Z,99.90
2024-04-18T06:46:10.741Z,99.90
2024-04-18T06:48:38.430Z,99.90
2024-04-18T06:51:05.942Z,99.90
2024-04-18T06:53:33.342Z,99.90
2024-04-18T06:56:01.808Z,99.90
2024-04-18T06:58:29.111Z,99.90
2024-04-18T07:00:56.427Z,99.90
2024-04-18T07:03:23.848Z,99.90
2024-04-18T07:05:51.313Z,99.90
2024-04-18T07:08:18.582Z,99.90
2024-04-18T07:10:45.755Z,99.90
2024-04-18T07:13:13.105Z,99.90
2024-04-18T07:15:40.294Z,99.90
2024-04-18T07:18:07.761Z,99.90
2024-04-18T07:20:35.357Z,99.90
2024-04-18T07:23:02.724Z,99.90
2024-04-18T07:25:30.000Z,99.90
2024-04-18T07:27:57.337Z,99.90
2024-04-18T07:30:24.702Z,99.90
2024-04-18T07:32:53.050Z,99.90
2024-04-18T07:35:20.328Z,99.90
2024-04-18T07:37:48.761Z,99.90
2024-04-18T07:40:19.840Z,99.90
2024-04-18T07:42:50.007Z,99.90
2024-04-18T07:45:17.910Z,99.90
2024-04-18T07:47:46.803Z,99.90
2024-04-18T07:50:14.464Z,99.90
2024-04-18T07:52:47.322Z,99.90
2024-04-18T07:55:20.102Z,99.90
2024-04-18T07:57:47.991Z,99.90
2024-04-18T08:00:16.103Z,99.90
2024-04-18T08:02:46.744Z,99.90
2024-04-18T08:05:17.445Z,99.90
2024-04-18T08:07:49.092Z,99.90
2024-04-18T08:10:20.714Z,99.90
2024-04-18T08:12:53.419Z,99.90
2024-04-18T08:15:26.806Z,99.90
2024-04-18T08:18:09.929Z,99.90
2024-04-18T08:20:37.148Z,99.90
2024-04-18T08:23:06.105Z,99.90
2024-04-18T08:25:33.528Z,99.90
2024-04-18T08:28:01.081Z,99.90
2024-04-18T08:30:28.560Z,99.90
2024-04-18T08:32:55.761Z,99.90
2024-04-18T08:35:23.685Z,99.90
2024-04-18T08:37:52.000Z,99.90
2024-04-18T08:40:19.763Z,99.90
2024-04-18T08:42:47.552Z,99.90
2024-04-18T08:45:14.995Z,99.90
2024-04-18T08:47:43.034Z,99.90
2024-04-18T08:50:13.106Z,99.90
2024-04-18T08:52:42.013Z,99.90
2024-04-18T08:55:09.901Z,99.90
2024-04-18T08:57:45.789Z,99.90
2024-04-18T09:00:13.781Z,99.90
2024-04-18T09:02:41.671Z,99.90
2024-04-18T09:05:09.655Z,99.90
2024-04-18T09:07:37.283Z,99.90
2024-04-18T09:10:08.867Z,99.90
2024-04-18T09:12:36.552Z,99.90
2024-04-18T09:15:07.285Z,99.90
2024-04-18T09:17:35.442Z,99.90
2024-04-18T09:20:02.817Z,99.90
2024-04-18T09:22:29.976Z,99.90
2024-04-18T09:24:57.169Z,99.90
2024-04-18T09:27:24.336Z,99.90
2024-04-18T09:29:51.768Z,99.90
2024-04-18T09:32:19.304Z,99.90
2024-04-18T09:34:49.588Z,99.90
2024-04-18T09:37:17.659Z,99.90
2024-04-18T09:39:47.500Z,99.90
2024-04-18T09:42:38.344Z,99.90
2024-04-18T09:45:07.135Z,99.90
2024-04-18T09:47:36.117Z,99.90
2024-04-18T09:50:04.466Z,99.90
2024-04-18T09:52:32.214Z,99.90
2024-04-18T09:55:02.194Z,99.90
2024-04-18T09:57:31.488Z,99.90
2024-04-18T10:00:00.713Z,99.90
2024-04-18T10:02:31.226Z,99.90
2024-04-18T10:04:58.980Z,99.90
2024-04-18T10:07:28.078Z,99.90
2024-04-18T10:09:56.008Z,99.90
2024-04-18T10:12:34.188Z,99.90
2024-04-18T10:15:02.335Z,99.00
2024-04-18T10:17:33.399Z,97.20
2024-04-18T10:20:06.394Z,97.70
2024-04-18T10:22:45.545Z,97.40
2024-04-18T10:25:22.928Z,97.90
2024-04-18T10:27:50.963Z,97.60
2024-04-18T10:30:18.176Z,99.00
2024-04-18T10:32:49.868Z,98.70
2024-04-18T10:35:18.565Z,98.40
2024-04-18T10:37:52.287Z,97.30
2024-04-18T10:40:19.615Z,99.00
2024-04-18T10:42:46.979Z,98.80
2024-04-18T10:45:16.851Z,99.10
2024-04-18T10:47:49.778Z,97.40
2024-04-18T10:50:17.407Z,96.40
2024-04-18T10:52:44.646Z,95.10
2024-04-18T10:55:11.884Z,96.10
2024-04-18T10:57:39.194Z,93.40
2024-04-18T11:00:08.225Z,94.50
2024-04-18T11:02:36.217Z,92.60
2024-04-18T11:05:04.044Z,92.70
2024-04-18T11:07:31.220Z,92.60
2024-04-18T11:09:58.466Z,93.10
2024-04-18T11:12:25.822Z,91.80
2024-04-18T11:14:54.034Z,92.00
2024-04-18T11:17:21.503Z,90.40
2024-04-18T11:19:48.859Z,90.90
2024-04-18T11:22:16.069Z,84.00
2024-04-18T11:24:43.414Z,85.10
2024-04-18T11:27:10.895Z,90.50
2024-04-18T11:29:38.792Z,88.30
2024-04-18T11:32:12.731Z,85.80
2024-04-18T11:34:40.335Z,89.40
2024-04-18T11:37:13.310Z,89.50
2024-04-18T11:39:41.564Z,87.70
2024-04-18T11:42:09.085Z,87.00
2024-04-18T11:44:36.352Z,84.40
2024-04-18T11:47:03.689Z,82.20
2024-04-18T11:49:31.003Z,85.50
2024-04-18T11:51:58.469Z,87.60
2024-04-18T11:54:26.320Z,85.20
2024-04-18T11:56:55.552Z,86.70
2024-04-18T11:59:22.986Z,91.00
2024-04-18T12:01:50.156Z,92.60
2024-04-18T12:04:17.517Z,94.50
2024-04-18T12:06:46.763Z,97.00
2024-04-18T12:09:14.028Z,98.50
2024-04-18T12:11:41.615Z,99.10
2024-04-18T12:14:09.740Z,99.60
2024-04-18T12:16:37.051Z,99.00
2024-04-18T12:19:04.223Z,98.30
2024-04-18T12:21:31.691Z,98.80
2024-04-18T12:23:58.883Z,99.90
2024-04-18T12:26:26.222Z,98.90
2024-04-18T12:28:53.836Z,98.60
2024-04-18T12:31:21.065Z,99.20
2024-04-18T12:33:48.241Z,98.40
2024-04-18T12:36:17.550Z,96.80
2024-04-18T12:38:55.830Z,91.00
2024-04-18T12:41:25.903Z,92.70
2024-04-18T12:43:56.884Z,91.50
2024-04-18T12:46:25.072Z,90.40
2024-04-18T12:48:53.133Z,90.90
2024-04-18T12:51:20.544Z,91.20
2024-04-18T12:53:48.083Z,91.70
2024-04-18T12:56:15.920Z,92.90
2024-04-18T12:58:43.904Z,93.40
2024-04-18T13:01:11.807Z,95.10
2024-04-18T13:03:39.982Z,95.70
2024-04-18T13:06:07.984Z,96.00
2024-04-18T13:08:35.103Z,96.20
2024-04-18T13:11:08.287Z,95.50
2024-04-18T13:13:35.656Z,95.90
2024-04-18T13:16:03.598Z,96.60
2024-04-18T13:18:30.969Z,97.30
2024-04-18T13:20:58.272Z,98.40
2024-04-18T13:23:25.557Z,98.20
2024-04-18T13:25:54.141Z,97.50
2024-04-18T13:28:23.924Z,97.60
2024-04-18T13:30:51.321Z,96.90
2024-04-18T13:33:21.209Z,97.90
2024-04-18T13:35:49.419Z,98.10
2024-04-18T13:38:28.309Z,96.40
2024-04-18T13:41:09.011Z,95.70
2024-04-18T13:43:46.489Z,95.60
2024-04-18T13:46:13.918Z,95.30
2024-04-18T13:48:41.310Z,95.20
2024-04-18T13:51:08.504Z,94.00
2024-04-18T13:53:35.739Z,93.70
2024-04-18T13:56:06.329Z,92.60
2024-04-18T13:58:33.555Z,92.30
2024-04-18T14:01:02.214Z,92.40
2024-04-18T14:03:30.059Z,91.80
2024-04-18T14:05:58.121Z,91.30
2024-04-18T14:08:25.381Z,91.70
2024-04-18T14:10:52.957Z,94.20
2024-04-18T14:13:21.729Z,94.40
2024-04-18T14:16:12.288Z,95.00
2024-04-18T14:18:52.256Z,94.50
2024-04-18T14:21:20.626Z,92.50
2024-04-18T14:23:47.765Z,92.80
2024-04-18T14:26:14.883Z,93.40
2024-04-18T14:28:42.063Z,92.00
2024-04-18T14:31:09.321Z,92.10
2024-04-18T14:33:36.897Z,92.30
2024-04-18T14:36:04.424Z,92.70
2024-04-18T14:38:32.096Z,92.60
2024-04-18T14:41:06.160Z,92.60
2024-04-18T14:43:38.824Z,91.90
2024-04-18T14:46:06.234Z,91.80
2024-04-18T14:48:37.758Z,88.50
2024-04-18T14:51:05.572Z,91.70
2024-04-18T14:53:32.870Z,92.10
2024-04-18T14:56:00.262Z,92.60
2024-04-18T14:58:27.997Z,91.70
2024-04-18T15:00:55.502Z,91.50
2024-04-18T15:03:24.071Z,91.20
2024-04-18T15:05:55.035Z,91.60
2024-04-18T15:08:22.779Z,92.00
2024-04-18T15:10:50.160Z,90.70
2024-04-18T15:13:17.504Z,90.70
2024-04-18T15:15:45.436Z,90.00
2024-04-18T15:18:14.527Z,90.70
2024-04-18T15:20:42.114Z,90.50
2024-04-18T15:23:12.752Z,90.00
2024-04-18T15:25:40.149Z,90.40
2024-04-18T15:28:07.428Z,89.90
2024-04-18T15:30:35.348Z,90.40
2024-04-18T15:33:02.666Z,90.20
2024-04-18T15:35:30.976Z,88.80
2024-04-18T15:37:58.194Z,86.90
2024-04-18T15:40:25.411Z,87.90
2024-04-18T15:42:52.808Z,88.30
2024-04-18T15:45:19.943Z,90.10
2024-04-18T15:47:47.465Z,90.50
2024-04-18T15:50:14.884Z,90.80
2024-04-18T15:52:48.240Z,90.80
2024-04-18T15:55:21.564Z,90.40
2024-04-18T15:57:49.676Z,90.40
2024-04-18T16:00:18.200Z,91.20
2024-04-18T16:02:48.666Z,91.10
2024-04-18T16:05:18.803Z,92.00
2024-04-18T16:07:46.010Z,91.90
2024-04-18T16:10:13.780Z,90.70
2024-04-18T16:12:41.050Z,91.90
2024-04-18T16:15:08.688Z,92.10
2024-04-18T16:17:35.936Z,92.80
2024-04-18T16:20:04.510Z,93.00
2024-04-18T16:22:31.891Z,93.50
2024-04-18T16:24:59.221Z,93.80
2024-04-18T16:27:26.466Z,94.20
2024-04-18T16:29:53.725Z,95.10
2024-04-18T16:32:20.895Z,95.40
2024-04-18T16:34:48.200Z,95.30
2024-04-18T16:37:18.400Z,95.20
2024-04-18T16:39:46.988Z,95.20
2024-04-18T16:42:14.428Z,95.10
2024-04-18T16:44:41.945Z,95.10
2024-04-18T16:47:09.120Z,95.00
2024-04-18T16:49:36.641Z,95.20
2024-04-18T16:52:05.050Z,94.70
2024-04-18T16:54:32.311Z,93.20
2024-04-18T16:56:59.539Z,92.60
2024-04-18T16:59:26.688Z,92.00
2024-04-18T17:01:53.915Z,91.20
2024-04-18T17:04:21.109Z,91.90
2024-04-18T17:06:49.172Z,92.30
2024-04-18T17:09:20.300Z,92.50
2024-04-18T17:11:47.767Z,93.00
2024-04-18T17:14:15.804Z,93.50
2024-04-18T17:16:43.687Z,93.60
2024-04-18T17:19:10.889Z,93.50
2024-04-18T17:21:51.560Z,93.70
2024-04-18T17:24:20.834Z,94.40
2024-04-18T17:26:48.710Z,95.20
2024-04-18T17:29:15.882Z,95.30
2024-04-18T17:31:43.741Z,95.70
2024-04-18T17:34:11.226Z,95.20
2024-04-18T17:36:38.447Z,95.70
2024-04-18T17:39:06.111Z,96.30
2024-04-18T17:41:33.456Z,96.60
2024-04-18T17:44:08.444Z,97.00
2024-04-18T17:49:41.807Z,97.40
2024-04-18T17:55:15.606Z,98.00
2024-04-18T17:57:42.863Z,98.30
2024-04-18T18:00:14.687Z,98.70
2024-04-18T18:02:42.172Z,99.00
2024-04-18T18:05:09.747Z,99.60
2024-04-18T18:07:45.528Z,99.90
2024-04-18T18:10:13.072Z,99.90
2024-04-18T18:12:56.820Z,99.90
2024-04-18T18:15:27.367Z,99.90
2024-04-18T18:17:55.086Z,99.90
2024-04-18T18:21:30.803Z,99.90
2024-04-18T18:23:59.858Z,99.90
2024-04-18T18:27:21.364Z,99.90
2024-04-18T18:29:51.253Z,99.90
2024-04-18T18:32:21.783Z,99.90
2024-04-18T18:34:49.605Z,99.90
2024-04-18T18:37:19.135Z,99.90
2024-04-18T18:40:03.558Z,99.90
2024-04-18T18:42:31.981Z,99.90
2024-04-18T18:45:12.447Z,99.90
2024-04-18T18:48:07.173Z,99.90
2024-04-18T18:50:49.908Z,99.90
2024-04-18T18:53:19.732Z,99.90
2024-04-18T18:55:50.047Z,99.90
2024-04-18T18:59:12.525Z,99.90
2024-04-18T19:01:40.111Z,99.90
2024-04-18T19:04:16.006Z,99.90
2024-04-18T19:06:46.720Z,99.90
2024-04-18T19:09:51.992Z,99.90
2024-04-18T19:12:19.443Z,99.90
2024-04-18T19:14:50.195Z,99.90
2024-04-18T19:17:18.276Z,99.90
2024-04-18T19:19:48.555Z,99.90
2024-04-18T19:22:16.446Z,99.90
2024-04-18T19:24:43.838Z,99.90
2024-04-18T19:27:11.245Z,99.90
2024-04-18T19:29:46.190Z,99.90
2024-04-18T19:32:16.996Z,99.90
2024-04-18T19:34:44.758Z,99.90
2024-04-18T19:37:11.952Z,99.90
2024-04-18T19:39:39.185Z,99.90
2024-04-18T19:42:06.624Z,99.90
2024-04-18T19:44:34.729Z,99.90
2024-04-18T19:47:02.140Z,99.90
2024-04-18T19:49:30.262Z,99.90
2024-04-18T19:52:02.891Z,99.90
2024-04-18T19:54:32.643Z,99.90
2024-04-18T19:56:59.917Z,99.90
2024-04-18T19:59:27.835Z,99.90
2024-04-18T20:01:55.089Z,99.90
2024-04-18T20:04:22.381Z,99.90
2024-04-18T20:06:49.648Z,99.90
2024-04-18T20:09:17.480Z,99.90
2024-04-18T20:11:44.701Z,99.90
2024-04-18T20:14:12.029Z,99.90
2024-04-18T20:16:45.040Z,99.90
2024-04-18T20:19:13.611Z,99.90
2024-04-18T20:21:41.929Z,99.90
2024-04-18T20:24:09.209Z,99.90
2024-04-18T20:26:38.367Z,99.90
2024-04-18T20:29:05.750Z,99.90
2024-04-18T20:31:32.852Z,99.90
2024-04-18T20:34:04.035Z,99.90
2024-04-18T20:36:34.789Z,99.90
2024-04-18T20:39:01.952Z,99.90
2024-04-18T20:41:29.449Z,99.90
2024-04-18T20:43:56.687Z,99.90
2024-04-18T20:46:30.008Z,99.90
2024-04-18T20:48:57.506Z,99.90
2024-04-18T20:51:24.784Z,99.90
2024-04-18T20:53:51.938Z,99.90
2024-04-18T20:56:19.319Z,99.90
2024-04-18T20:58:46.419Z,99.90
2024-04-18T21:01:13.911Z,99.90
2024-04-18T21:03:41.434Z,99.90
2024-04-18T21:06:08.806Z,99.90
2024-04-18T21:08:36.256Z,99.90
2024-04-18T21:11:03.664Z,99.90
2024-04-18T21:13:30.900Z,99.90
2024-04-18T21:15:59.107Z,99.90
2024-04-18T21:18:26.645Z,99.90
2024-04-18T21:20:54.269Z,99.90
2024-04-18T21:23:21.924Z,99.90
2024-04-18T21:25:49.200Z,99.90
2024-04-18T21:28:16.499Z,99.90
2024-04-18T21:30:44.079Z,99.90
2024-04-18T21:33:11.468Z,99.90
2024-04-18T21:35:38.809Z,99.90
2024-04-18T21:38:06.060Z,99.90
2024-04-18T21:40:34.512Z,99.90
2024-04-18T21:43:04.306Z,99.90
2024-04-18T21:45:33.306Z,99.90
2024-04-18T21:48:01.223Z,99.90
2024-04-18T21:50:28.696Z,99.90
2024-04-18T21:52:56.060Z,99.90
2024-04-18T21:55:23.484Z,99.90
2024-04-18T21:57:50.803Z,99.90
2024-04-18T22:00:18.199Z,99.90
2024-04-18T22:02:45.528Z,99.90
2024-04-18T22:05:12.831Z,99.90
2024-04-18T22:07:40.383Z,99.90
2024-04-18T22:10:08.492Z,99.90
2024-04-18T22:12:35.816Z,99.90
2024-04-18T22:15:03.283Z,99.90
2024-04-18T22:17:30.656Z,99.90
2024-04-18T22:19:57.985Z,99.90
2024-04-18T22:22:25.403Z,99.90
2024-04-18T22:24:52.738Z,99.90
2024-04-18T22:27:20.454Z,99.90
2024-04-18T22:29:47.789Z,99.90
2024-04-18T22:32:15.061Z,99.90
2024-04-18T22:34:42.418Z,99.90
2024-04-18T22:37:09.722Z,99.90
2024-04-18T22:39:37.187Z,99.90
2024-04-18T22:42:04.856Z,99.90
2024-04-18T22:44:32.175Z,99.90
2024-04-18T22:46:59.578Z,99.90
2024-04-18T22:49:26.908Z,99.90
2024-04-18T22:51:54.146Z,99.90
2024-04-18T22:54:21.653Z,99.90
2024-04-18T22:56:48.853Z,99.90
2024-04-18T22:59:16.317Z,99.90
2024-04-18T23:01:44.416Z,99.90
2024-04-18T23:04:11.893Z,99.90
2024-04-18T23:06:39.203Z,99.90
2024-04-18T23:09:06.486Z,99.90
2024-04-18T23:11:33.775Z,99.90
2024-04-18T23:14:01.047Z,99.90
2024-04-18T23:16:28.633Z,99.90
2024-04-18T23:18:55.881Z,99.90
2024-04-18T23:21:23.183Z,99.90
2024-04-18T23:24:11.486Z,99.90
2024-04-18T23:26:38.969Z,99.90
2024-04-18T23:29:06.237Z,99.90
2024-04-18T23:31:33.813Z,99.90
2024-04-18T23:34:01.116Z,99.90
2024-04-18T23:36:28.522Z,99.90
2024-04-18T23:38:59.876Z,99.90
2024-04-18T23:41:28.367Z,99.90
2024-04-18T23:43:55.581Z,99.90
2024-04-18T23:46:22.871Z,99.90
2024-04-18T23:49:08.874Z,99.90
2024-04-18T23:51:36.236Z,99.90
2024-04-18T23:54:03.594Z,99.90
2024-04-18T23:57:00.671Z,99.90
2024-04-18T23:59:30.274Z,99.90
